Time;durP1;ratioP1;P1;durP2;ratioP2;P2;SDS_P1;SDS_P2;PMS_P1;PMS_P2;Temp;Humidity;BMP_temperature;BMP_pressure;BME280_temperature;BME280_humidity;BME280_pressure;Samples;Min_cycle;Max_cycle;Signal;HPM_P1;HPM_P2
2022/01/27 00:08:11;;;;;;;20.00;13.00;;;;;;;-0.31;88.67;99846.11;431567;1270;143765;-63
2022/01/27 00:18:18;;;;;;;17.70;10.90;;;;;;;-0.33;88.94;99843.05;432884;1270;147243;-63
2022/01/27 00:28:24;;;;;;;21.30;9.60;;;;;;;-0.37;88.84;99829.69;431629;1271;142927;-64
2022/01/27 00:38:30;;;;;;;16.60;11.00;;;;;;;-0.37;88.94;99827.63;430781;1271;142118;-64
2022/01/27 00:48:35;;;;;;;19.20;13.10;;;;;;;-0.38;88.78;99825.94;431214;1269;141714;-63
2022/01/27 00:58:50;;;;;;;22.80;13.80;;;;;;;-0.41;88.65;99836.48;431465;1270;142157;-64
2022/01/27 01:19:34;;;;;;;22.70;15.30;;;;;;;-0.45;89.00;99821.38;431388;1270;141032;-63
2022/01/27 01:29:55;;;;;;;22.80;14.60;;;;;;;-0.48;89.17;99813.86;430684;1270;141819;-64
2022/01/27 01:40:01;;;;;;;28.40;16.10;;;;;;;-0.46;89.40;99802.48;433376;1271;142063;-64
2022/01/27 01:50:10;;;;;;;24.50;14.40;;;;;;;-0.44;89.51;99804.85;430621;1271;142047;-63
2022/01/27 02:00:18;;;;;;;24.40;15.00;;;;;;;-0.44;89.71;99794.36;432095;1271;141660;-64
2022/01/27 02:10:40;;;;;;;29.30;16.50;;;;;;;-0.40;89.81;99791.03;432089;1271;145956;-63
2022/01/27 02:20:46;;;;;;;23.90;14.40;;;;;;;-0.39;90.05;99784.50;433357;1271;142386;-63
2022/01/27 02:30:52;;;;;;;22.50;15.40;;;;;;;-0.43;89.97;99773.52;431854;1273;152596;-64
2022/01/27 02:41:03;;;;;;;21.00;12.00;;;;;;;-0.46;90.01;99762.73;431487;1273;195793;-64
2022/01/27 02:51:09;;;;;;;24.00;16.00;;;;;;;-0.49;90.18;99766.58;431484;1270;141332;-63
2022/01/27 03:01:20;;;;;;;26.40;16.00;;;;;;;-0.55;90.51;99759.79;432656;1270;141322;-63
2022/01/27 03:11:38;;;;;;;25.00;15.70;;;;;;;-0.51;90.69;99755.27;431618;1270;141626;-63
2022/01/27 03:21:44;;;;;;;31.80;15.50;;;;;;;-0.49;90.59;99747.66;430936;1270;142297;-62
2022/01/27 03:31:50;;;;;;;27.40;17.50;;;;;;;-0.54;90.93;99744.48;430271;1270;142407;-64
2022/01/27 03:41:57;;;;;;;29.70;19.10;;;;;;;-0.55;91.18;99736.93;431256;1270;142356;-63
2022/01/27 03:52:03;;;;;;;35.90;20.00;;;;;;;-0.52;91.16;99733.61;430612;1271;142947;-64
2022/01/27 04:02:09;;;;;;;32.70;18.50;;;;;;;-0.54;91.51;99724.70;431377;1270;142455;-65
2022/01/27 04:12:16;;;;;;;28.90;16.20;;;;;;;-0.57;91.17;99707.55;430743;1271;142500;-65
2022/01/27 04:22:21;;;;;;;;;;;;;;;-0.63;91.18;99696.65;431273;1270;142261;-64
2022/01/27 04:32:33;;;;;;;21.40;13.30;;;;;;;-0.69;90.99;99689.17;430885;1270;128434;-64
2022/01/27 04:42:50;;;;;;;19.70;14.50;;;;;;;-0.72;91.42;99684.73;431649;1272;142010;-64
2022/01/27 04:52:59;;;;;;;25.30;14.30;;;;;;;-0.69;91.40;99669.75;430617;1273;141667;-63
2022/01/27 05:03:13;;;;;;;25.30;13.80;;;;;;;-0.67;91.49;99657.86;431635;1270;143958;-64
2022/01/27 05:13:20;;;;;;;30.20;17.50;;;;;;;-0.64;91.43;99657.10;430181;1273;143635;-66
2022/01/27 05:23:26;;;;;;;36.90;19.10;;;;;;;-0.60;91.75;99641.23;430333;1271;142865;-63
2022/01/27 05:33:32;;;;;;;35.60;21.50;;;;;;;-0.57;91.61;99631.71;430850;1273;141588;-63
2022/01/27 05:43:38;;;;;;;34.10;19.30;;;;;;;-0.55;91.87;99627.73;430318;1270;141337;-64
2022/01/27 05:53:44;;;;;;;29.90;16.90;;;;;;;-0.53;91.75;99622.36;430922;1273;142208;-64
2022/01/27 06:03:51;;;;;;;33.60;18.30;;;;;;;-0.52;91.70;99599.13;431202;1270;142055;-64
2022/01/27 06:13:57;;;;;;;33.70;19.00;;;;;;;-0.52;91.87;99592.08;429981;1270;142378;-65
2022/01/27 06:24:02;;;;;;;29.90;19.20;;;;;;;-0.50;91.93;99583.25;430332;1273;141187;-64
2022/01/27 06:34:09;;;;;;;35.50;21.00;;;;;;;-0.46;91.86;99569.42;430283;1273;140527;-64
2022/01/27 06:44:15;;;;;;;39.40;20.90;;;;;;;-0.42;92.05;99565.91;431837;1273;141687;-65
2022/01/27 06:54:21;;;;;;;32.00;19.10;;;;;;;-0.41;91.95;99542.00;431416;1273;142434;-66
2022/01/27 07:04:27;;;;;;;27.80;18.60;;;;;;;-0.38;91.95;99540.05;430992;1271;142370;-63
2022/01/27 07:14:34;;;;;;;30.60;18.60;;;;;;;-0.35;92.05;99542.21;430395;1271;142862;-65
2022/01/27 07:24:40;;;;;;;30.60;19.40;;;;;;;-0.32;92.15;99517.20;431522;1271;141761;-65
2022/01/27 07:34:46;;;;;;;24.50;14.50;;;;;;;-0.27;92.11;99514.70;430598;1273;142958;-66
2022/01/27 07:44:51;;;;;;;29.90;19.30;;;;;;;-0.21;92.05;99508.04;432663;1271;143484;-65
2022/01/27 07:54:57;;;;;;;28.70;18.30;;;;;;;-0.15;92.07;99495.36;431225;1273;141573;-64
2022/01/27 08:05:04;;;;;;;24.90;15.40;;;;;;;-0.09;91.75;99482.85;430596;1271;141661;-65
2022/01/27 08:15:13;;;;;;;21.10;15.30;;;;;;;-0.04;91.74;99472.05;431428;1271;142501;-64
2022/01/27 08:25:21;;;;;;;23.00;16.10;;;;;;;0.02;91.50;99453.52;431341;1271;141732;-67
2022/01/27 08:35:28;;;;;;;19.90;13.80;;;;;;;0.09;91.47;99446.98;430192;1270;141921;-67
2022/01/27 08:45:34;;;;;;;17.70;12.80;;;;;;;0.15;91.34;99434.63;431540;1271;142419;-66
2022/01/27 08:55:40;;;;;;;18.80;12.00;;;;;;;0.19;91.14;99426.77;436455;1271;141832;-63
2022/01/27 09:05:46;;;;;;;16.80;10.40;;;;;;;0.26;90.98;99402.85;432328;1273;141490;-68
2022/01/27 09:15:58;;;;;;;16.70;11.30;;;;;;;0.31;90.88;99399.29;430315;1270;147107;-65
2022/01/27 09:26:09;;;;;;;15.40;11.40;;;;;;;0.38;90.64;99398.08;430499;1270;141975;-71
2022/01/27 09:36:17;;;;;;;15.60;10.90;;;;;;;0.52;90.45;99381.89;431053;1272;141139;-63
2022/01/27 09:46:26;;;;;;;14.80;10.10;;;;;;;0.63;90.21;99368.34;430907;1271;146809;-72
2022/01/27 09:56:35;;;;;;;14.20;9.30;;;;;;;0.72;89.86;99346.36;430569;1271;141755;-70
2022/01/27 10:06:48;;;;;;;15.90;11.10;;;;;;;0.83;89.57;99322.63;431569;1271;140820;-71
2022/01/27 10:17:00;;;;;;;15.60;11.10;;;;;;;0.84;89.22;99318.98;430622;1273;141494;-61
2022/01/27 10:27:30;;;;;;;13.10;9.30;;;;;;;0.79;88.97;99318.62;430888;1271;141512;-65
2022/01/27 10:37:55;;;;;;;15.00;10.30;;;;;;;0.85;88.80;99297.94;430472;1271;382491;-73
2022/01/27 10:48:17;;;;;;;14.10;9.50;;;;;;;0.93;88.52;99286.69;432254;1273;141223;-71
2022/01/27 10:58:29;;;;;;;17.60;10.80;;;;;;;0.78;88.26;99264.01;432283;1273;142146;-70
2022/01/27 11:08:39;;;;;;;15.40;10.70;;;;;;;0.70;88.07;99256.31;431380;1272;143727;-66
2022/01/27 11:18:47;;;;;;;15.20;10.40;;;;;;;0.63;88.03;99236.71;430981;1273;142125;-65
2022/01/27 11:28:56;;;;;;;11.70;9.30;;;;;;;0.52;88.27;99222.73;430553;1273;140673;-66
2022/01/27 11:39:05;;;;;;;12.00;9.30;;;;;;;0.49;88.37;99212.83;432019;1271;140871;-65
2022/01/27 11:49:53;;;;;;;12.80;8.70;;;;;;;0.46;88.75;99196.21;431097;1272;140936;-62
2022/01/27 12:00:16;;;;;;;12.30;10.10;;;;;;;0.33;88.82;99187.79;431214;1271;141296;-60
2022/01/27 12:10:45;;;;;;;13.10;10.00;;;;;;;0.15;89.04;99167.27;431401;1271;142254;-61
2022/01/27 12:20:52;;;;;;;15.70;11.50;;;;;;;0.02;89.33;99143.02;431420;1271;141119;-61
2022/01/27 12:31:01;;;;;;;14.60;11.00;;;;;;;-0.08;89.53;99130.92;432026;1271;141793;-68
2022/01/27 12:41:08;;;;;;;16.50;11.60;;;;;;;-0.18;89.78;99120.87;430774;1271;163151;-68
2022/01/27 12:51:14;;;;;;;21.20;14.00;;;;;;;-0.22;89.72;99104.63;431662;1270;141431;-67
2022/01/27 13:01:21;;;;;;;23.30;13.30;;;;;;;-0.25;90.07;99096.45;431893;1271;141604;-61
2022/01/27 13:11:40;;;;;;;20.40;12.30;;;;;;;-0.33;90.14;99088.05;430842;1271;142121;-61
2022/01/27 13:21:51;;;;;;;20.30;14.40;;;;;;;-0.37;90.13;99067.19;431574;1273;142319;-69
2022/01/27 13:32:12;;;;;;;20.60;12.90;;;;;;;-0.40;89.96;99047.85;432112;1270;142082;-69
2022/01/27 13:42:18;;;;;;;18.40;13.40;;;;;;;-0.51;90.13;99041.60;431874;1271;142131;-65
2022/01/27 13:52:25;;;;;;;19.60;12.60;;;;;;;-0.58;90.47;99030.62;432702;1271;142108;-67
2022/01/27 14:02:33;;;;;;;22.10;12.80;;;;;;;-0.59;90.53;99008.98;434142;1271;142155;-71
2022/01/27 14:13:00;;;;;;;28.30;13.90;;;;;;;-0.59;90.80;98987.30;433074;1271;141434;-71
2022/01/27 14:23:17;;;;;;;23.50;15.30;;;;;;;-0.65;90.77;98982.66;433312;1271;161505;-70
2022/01/27 14:33:24;;;;;;;22.10;14.20;;;;;;;-0.70;90.94;98974.55;431969;1271;142794;-63
2022/01/27 14:43:31;;;;;;;21.10;14.70;;;;;;;-0.74;90.92;98963.65;431303;1271;142307;-58
2022/01/27 14:53:39;;;;;;;16.90;11.20;;;;;;;-0.75;91.16;98967.81;430197;1271;182985;-59
2022/01/27 15:03:46;;;;;;;18.40;11.90;;;;;;;-0.78;91.25;98960.00;430523;1270;142496;-62
2022/01/27 15:14:00;;;;;;;10.70;9.50;;;;;;;-0.80;91.49;98956.77;430803;1271;142116;-63
2022/01/27 15:24:08;;;;;;;14.80;10.30;;;;;;;-0.78;91.67;98944.35;432642;1270;141525;-58
2022/01/27 15:34:14;;;;;;;13.10;10.40;;;;;;;-0.76;91.71;98944.45;431227;1270;143414;-60
2022/01/27 15:44:21;;;;;;;13.20;9.60;;;;;;;-0.73;91.83;98935.09;431694;1270;142484;-58
2022/01/27 15:54:26;;;;;;;;;;;;;;;-0.67;92.08;98926.67;431827;1271;142052;-58
2022/01/27 16:04:32;;;;;;;13.50;9.70;;;;;;;-0.62;92.04;98928.09;431038;1271;127406;-60
2022/01/27 16:14:39;;;;;;;12.70;10.10;;;;;;;-0.58;92.24;98921.45;430423;1271;142033;-58
2022/01/27 16:24:47;;;;;;;14.30;10.20;;;;;;;-0.50;92.18;98920.17;431395;1270;146496;-63
2022/01/27 16:34:54;;;;;;;13.10;11.20;;;;;;;-0.41;92.51;98914.09;429977;1271;142319;-59
2022/01/27 16:44:58;;;;;;;;;;;;;;;-0.34;92.38;98908.34;430692;1272;141939;-61
2022/01/27 16:55:06;;;;;;;15.30;11.80;;;;;;;-0.26;92.71;98905.02;431598;1273;128276;-58
2022/01/27 17:05:13;;;;;;;15.80;10.80;;;;;;;-0.18;92.81;98895.14;431058;1271;142139;-65
2022/01/27 17:15:19;;;;;;;14.80;10.70;;;;;;;-0.08;92.84;98879.52;431434;1271;141547;-66
2022/01/27 17:25:26;;;;;;;16.60;12.60;;;;;;;0.01;92.76;98873.02;431007;1273;142297;-72
2022/01/27 17:35:33;;;;;;;17.40;12.90;;;;;;;0.12;92.80;98873.02;432171;1270;147666;-68
2022/01/27 17:45:40;;;;;;;21.00;12.00;;;;;;;0.19;92.88;98866.60;431683;1270;141172;-70
2022/01/27 17:56:00;;;;;;;15.20;10.30;;;;;;;0.26;92.91;98857.25;432111;1271;142924;-71
2022/01/27 18:06:06;;;;;;;17.10;11.50;;;;;;;0.34;92.93;98849.08;432042;1270;141678;-68
2022/01/27 18:16:13;;;;;;;13.40;9.90;;;;;;;0.42;92.94;98826.78;431804;1271;142774;-70
2022/01/27 18:26:19;;;;;;;12.40;10.50;;;;;;;0.49;92.96;98806.04;432495;1270;141533;-73
2022/01/27 18:36:26;;;;;;;13.20;10.00;;;;;;;0.52;92.66;98801.27;432244;1270;142749;-70
2022/01/27 18:46:32;;;;;;;15.60;10.90;;;;;;;0.53;92.77;98797.25;431778;1271;141963;-69
2022/01/27 18:56:39;;;;;;;16.80;10.60;;;;;;;0.57;93.11;98784.55;435749;1271;142603;-66
2022/01/27 19:06:45;;;;;;;12.40;9.40;;;;;;;0.65;92.84;98779.79;431127;1271;142888;-66
2022/01/27 19:16:52;;;;;;;10.50;8.90;;;;;;;0.75;92.97;98777.21;431114;1270;141103;-68
2022/01/27 19:27:01;;;;;;;15.30;10.50;;;;;;;0.81;93.14;98773.52;432243;1271;142156;-75
2022/01/27 19:37:08;;;;;;;17.10;11.50;;;;;;;0.87;93.01;98756.24;432957;1270;140623;-68
2022/01/27 19:47:15;;;;;;;19.20;11.90;;;;;;;0.94;93.11;98738.90;430970;1271;141449;-73
2022/01/27 19:57:21;;;;;;;17.20;13.00;;;;;;;1.02;92.93;98711.56;431446;1270;141578;-71
2022/01/27 20:07:30;;;;;;;13.30;11.30;;;;;;;1.05;92.78;98710.09;431627;1271;141425;-70
2022/01/27 20:17:36;;;;;;;11.60;9.40;;;;;;;1.06;92.77;98701.23;430504;1270;141567;-64
2022/01/27 20:27:43;;;;;;;13.80;11.10;;;;;;;1.15;92.76;98695.52;430557;1270;141979;-67
2022/01/27 20:37:50;;;;;;;14.60;11.30;;;;;;;1.26;92.77;98676.33;430546;1270;141883;-66
2022/01/27 20:47:56;;;;;;;13.90;10.80;;;;;;;1.34;92.61;98675.46;432237;1270;140435;-68
2022/01/27 20:58:05;;;;;;;13.20;9.90;;;;;;;1.41;92.59;98675.73;431156;1270;142302;-60
2022/01/27 21:08:13;;;;;;;15.90;9.90;;;;;;;1.48;92.65;98659.90;431149;1270;142591;-63
2022/01/27 21:18:19;;;;;;;9.10;7.50;;;;;;;1.56;92.58;98666.64;431220;1270;141565;-69
2022/01/27 21:28:25;;;;;;;12.60;7.70;;;;;;;1.61;92.45;98665.59;431777;1271;141846;-67
2022/01/27 21:38:32;;;;;;;9.30;6.80;;;;;;;1.76;92.23;98668.23;431170;1270;142410;-69
2022/01/27 21:48:38;;;;;;;10.10;8.70;;;;;;;1.90;92.16;98661.43;431651;1271;140952;-68
2022/01/27 21:58:45;;;;;;;10.30;8.20;;;;;;;1.90;92.03;98646.75;430974;1271;141078;-69
2022/01/27 22:08:52;;;;;;;8.60;7.30;;;;;;;1.87;91.81;98642.56;431417;1270;152436;-64
2022/01/27 22:18:58;;;;;;;9.20;7.60;;;;;;;1.91;91.61;98633.95;431174;1271;141104;-64
2022/01/27 22:29:05;;;;;;;10.70;7.10;;;;;;;1.96;91.42;98621.46;430933;1270;142838;-63
2022/01/27 22:39:11;;;;;;;8.70;6.90;;;;;;;2.02;91.15;98603.41;431210;1271;251926;-64
2022/01/27 22:49:19;;;;;;;7.20;6.10;;;;;;;2.03;91.02;98590.41;431679;1270;141399;-64
2022/01/27 22:59:26;;;;;;;7.70;5.40;;;;;;;2.00;90.85;98571.91;430646;1271;142313;-63
2022/01/27 23:09:32;;;;;;;7.00;4.40;;;;;;;2.05;90.33;98564.98;430854;1273;142424;-63
2022/01/27 23:19:44;;;;;;;7.90;4.40;;;;;;;2.13;89.91;98550.77;431124;1271;143245;-63
2022/01/27 23:29:52;;;;;;;6.10;4.10;;;;;;;2.15;89.65;98536.91;430769;1273;141804;-63
2022/01/27 23:40:12;;;;;;;6.30;4.60;;;;;;;2.00;89.59;98534.45;431049;1271;141585;-63
2022/01/27 23:50:25;;;;;;;6.70;3.60;;;;;;;2.01;89.47;98534.23;429904;1271;141915;-63
